sensor_id;sensor_type;location;lat;lon;timestamp;temperature;humidity
21092;DHT22;10704;42.678;23.288;2023-02-28T00:00:22;6.50;99.90
21092;DHT22;10704;42.678;23.288;2023-02-28T00:02:49;6.60;99.90
21092;DHT22;10704;42.678;23.288;2023-02-28T00:05:18;6.50;99.90
21092;DHT22;10704;42.678;23.288;2023-02-28T00:07:44;6.50;99.90
21092;DHT22;10704;42.678;23.288;2023-02-28T00:10:15;6.40;99.90
21092;DHT22;10704;42.678;23.288;2023-02-28T00:12:41;6.30;99.90
21092;DHT22;10704;42.678;23.288;2023-02-28T00:15:10;6.40;99.90
21092;DHT22;10704;42.678;23.288;2023-02-28T00:17:37;6.50;99.90
21092;DHT22;10704;42.678;23.288;2023-02-28T00:20:05;6.40;99.90
21092;DHT22;10704;42.678;23.288;2023-02-28T00:22:37;6.50;99.90
21092;DHT22;10704;42.678;23.288;2023-02-28T00:25:04;6.60;99.90
21092;DHT22;10704;42.678;23.288;2023-02-28T00:27:30;6.60;99.90
21092;DHT22;10704;42.678;23.288;2023-02-28T00:29:56;6.70;99.90
21092;DHT22;10704;42.678;23.288;2023-02-28T00:32:21;6.70;99.90
21092;DHT22;10704;42.678;23.288;2023-02-28T00:34:47;6.80;99.90
21092;DHT22;10704;42.678;23.288;2023-02-28T00:37:14;6.80;99.90
21092;DHT22;10704;42.678;23.288;2023-02-28T00:39:40;6.90;99.90
21092;DHT22;10704;42.678;23.288;2023-02-28T00:42:07;7.00;99.90
21092;DHT22;10704;42.678;23.288;2023-02-28T00:44:34;6.90;99.90
21092;DHT22;10704;42.678;23.288;2023-02-28T00:47:00;6.90;99.90
21092;DHT22;10704;42.678;23.288;2023-02-28T00:49:26;6.90;99.90
21092;DHT22;10704;42.678;23.288;2023-02-28T00:51:54;6.80;99.90
21092;DHT22;10704;42.678;23.288;2023-02-28T00:54:21;6.80;99.90
21092;DHT22;10704;42.678;23.288;2023-02-28T00:56:47;6.80;99.90
21092;DHT22;10704;42.678;23.288;2023-02-28T00:59:15;6.80;99.90
21092;DHT22;10704;42.678;23.288;2023-02-28T01:01:41;6.90;99.90
21092;DHT22;10704;42.678;23.288;2023-02-28T01:04:08;6.90;99.90
21092;DHT22;10704;42.678;23.288;2023-02-28T01:06:35;6.90;99.90
21092;DHT22;10704;42.678;23.288;2023-02-28T01:09:02;6.90;99.90
21092;DHT22;10704;42.678;23.288;2023-02-28T01:11:28;7.10;99.90
21092;DHT22;10704;42.678;23.288;2023-02-28T01:13:54;7.00;99.90
21092;DHT22;10704;42.678;23.288;2023-02-28T01:16:20;6.90;99.90
21092;DHT22;10704;42.678;23.288;2023-02-28T01:18:46;6.80;99.90
21092;DHT22;10704;42.678;23.288;2023-02-28T01:21:14;6.80;99.90
21092;DHT22;10704;42.678;23.288;2023-02-28T01:23:41;6.70;99.90
21092;DHT22;10704;42.678;23.288;2023-02-28T01:26:11;6.60;99.90
21092;DHT22;10704;42.678;23.288;2023-02-28T01:28:39;6.60;99.90
21092;DHT22;10704;42.678;23.288;2023-02-28T01:31:05;6.70;99.90
21092;DHT22;10704;42.678;23.288;2023-02-28T01:33:32;6.70;99.90
21092;DHT22;10704;42.678;23.288;2023-02-28T01:36:04;6.60;99.90
21092;DHT22;10704;42.678;23.288;2023-02-28T01:38:35;6.50;99.90
21092;DHT22;10704;42.678;23.288;2023-02-28T01:41:01;6.50;99.90
21092;DHT22;10704;42.678;23.288;2023-02-28T01:43:29;6.40;99.90
21092;DHT22;10704;42.678;23.288;2023-02-28T01:45:57;6.40;99.90
21092;DHT22;10704;42.678;23.288;2023-02-28T01:48:27;6.40;99.90
21092;DHT22;10704;42.678;23.288;2023-02-28T01:50:57;6.30;99.90
21092;DHT22;10704;42.678;23.288;2023-02-28T01:53:32;6.10;99.90
21092;DHT22;10704;42.678;23.288;2023-02-28T01:56:00;6.10;99.90
21092;DHT22;10704;42.678;23.288;2023-02-28T01:58:27;6.00;99.90
21092;DHT22;10704;42.678;23.288;2023-02-28T02:00:54;5.90;99.90
21092;DHT22;10704;42.678;23.288;2023-02-28T02:03:20;5.90;99.90
21092;DHT22;10704;42.678;23.288;2023-02-28T02:05:46;5.70;99.90
21092;DHT22;10704;42.678;23.288;2023-02-28T02:08:18;5.80;99.90
21092;DHT22;10704;42.678;23.288;2023-02-28T02:10:53;5.90;99.90
21092;DHT22;10704;42.678;23.288;2023-02-28T02:13:42;5.90;99.90
21092;DHT22;10704;42.678;23.288;2023-02-28T02:16:43;5.90;99.90
21092;DHT22;10704;42.678;23.288;2023-02-28T02:27:47;5.60;99.90
21092;DHT22;10704;42.678;23.288;2023-02-28T02:30:34;5.60;99.90
21092;DHT22;10704;42.678;23.288;2023-02-28T02:43:47;5.70;99.90
21092;DHT22;10704;42.678;23.288;2023-02-28T02:46:24;5.70;99.90
21092;DHT22;10704;42.678;23.288;2023-02-28T02:48:55;5.70;99.90
21092;DHT22;10704;42.678;23.288;2023-02-28T02:51:23;5.70;99.90
21092;DHT22;10704;42.678;23.288;2023-02-28T02:53:58;5.70;99.90
21092;DHT22;10704;42.678;23.288;2023-02-28T02:56:28;5.70;99.90
21092;DHT22;10704;42.678;23.288;2023-02-28T02:59:01;5.70;99.90
21092;DHT22;10704;42.678;23.288;2023-02-28T03:01:29;5.70;99.90
21092;DHT22;10704;42.678;23.288;2023-02-28T03:04:16;5.70;99.90
21092;DHT22;10704;42.678;23.288;2023-02-28T03:06:42;5.70;99.90
21092;DHT22;10704;42.678;23.288;2023-02-28T03:09:08;5.80;99.90
21092;DHT22;10704;42.678;23.288;2023-02-28T03:11:36;5.70;99.90
21092;DHT22;10704;42.678;23.288;2023-02-28T03:25:04;5.70;99.90
21092;DHT22;10704;42.678;23.288;2023-02-28T03:30:24;5.60;99.90
21092;DHT22;10704;42.678;23.288;2023-02-28T03:33:19;5.70;99.90
21092;DHT22;10704;42.678;23.288;2023-02-28T03:35:54;5.70;99.90
21092;DHT22;10704;42.678;23.288;2023-02-28T03:41:22;5.90;99.90
21092;DHT22;10704;42.678;23.288;2023-02-28T03:43:58;5.80;99.90
21092;DHT22;10704;42.678;23.288;2023-02-28T03:46:30;5.80;99.90
21092;DHT22;10704;42.678;23.288;2023-02-28T03:49:22;5.80;99.90
21092;DHT22;10704;42.678;23.288;2023-02-28T03:51:49;5.80;99.90
21092;DHT22;10704;42.678;23.288;2023-02-28T03:54:21;5.90;99.90
21092;DHT22;10704;42.678;23.288;2023-02-28T04:02:38;6.10;99.90
21092;DHT22;10704;42.678;23.288;2023-02-28T04:05:06;6.00;99.90
21092;DHT22;10704;42.678;23.288;2023-02-28T04:07:32;5.90;99.90
21092;DHT22;10704;42.678;23.288;2023-02-28T04:09:58;5.90;99.90
21092;DHT22;10704;42.678;23.288;2023-02-28T04:12:25;5.90;99.90
21092;DHT22;10704;42.678;23.288;2023-02-28T04:14:51;5.90;99.90
21092;DHT22;10704;42.678;23.288;2023-02-28T04:17:16;6.00;99.90
21092;DHT22;10704;42.678;23.288;2023-02-28T04:19:42;6.00;99.90
21092;DHT22;10704;42.678;23.288;2023-02-28T04:22:09;6.10;99.90
21092;DHT22;10704;42.678;23.288;2023-02-28T04:24:35;6.10;99.90
21092;DHT22;10704;42.678;23.288;2023-02-28T04:27:02;6.10;99.90
21092;DHT22;10704;42.678;23.288;2023-02-28T04:29:30;6.00;99.90
21092;DHT22;10704;42.678;23.288;2023-02-28T04:31:58;6.10;99.90
21092;DHT22;10704;42.678;23.288;2023-02-28T04:34:26;6.30;99.90
21092;DHT22;10704;42.678;23.288;2023-02-28T04:36:53;6.30;99.90
21092;DHT22;10704;42.678;23.288;2023-02-28T04:39:24;6.40;99.90
21092;DHT22;10704;42.678;23.288;2023-02-28T04:41:50;6.30;99.90
21092;DHT22;10704;42.678;23.288;2023-02-28T04:44:16;6.30;99.90
21092;DHT22;10704;42.678;23.288;2023-02-28T04:46:43;6.30;99.90
21092;DHT22;10704;42.678;23.288;2023-02-28T04:49:12;6.20;99.90
21092;DHT22;10704;42.678;23.288;2023-02-28T04:51:39;6.20;99.90
21092;DHT22;10704;42.678;23.288;2023-02-28T04:54:05;6.20;99.90
21092;DHT22;10704;42.678;23.288;2023-02-28T04:56:30;6.20;99.90
21092;DHT22;10704;42.678;23.288;2023-02-28T04:58:56;6.20;99.90
21092;DHT22;10704;42.678;23.288;2023-02-28T05:03:48;6.10;99.90
21092;DHT22;10704;42.678;23.288;2023-02-28T05:06:16;5.90;99.90
21092;DHT22;10704;42.678;23.288;2023-02-28T05:08:42;5.80;99.90
21092;DHT22;10704;42.678;23.288;2023-02-28T05:11:14;5.70;99.90
21092;DHT22;10704;42.678;23.288;2023-02-28T05:13:41;5.70;99.90
21092;DHT22;10704;42.678;23.288;2023-02-28T05:16:07;5.70;99.90
21092;DHT22;10704;42.678;23.288;2023-02-28T05:18:33;5.60;99.90
21092;DHT22;10704;42.678;23.288;2023-02-28T05:21:00;5.60;99.90
21092;DHT22;10704;42.678;23.288;2023-02-28T05:23:28;5.70;99.90
21092;DHT22;10704;42.678;23.288;2023-02-28T05:25:54;5.70;99.90
21092;DHT22;10704;42.678;23.288;2023-02-28T05:28:20;5.80;99.90
21092;DHT22;10704;42.678;23.288;2023-02-28T05:30:46;5.80;99.90
21092;DHT22;10704;42.678;23.288;2023-02-28T05:33:13;5.80;99.90
21092;DHT22;10704;42.678;23.288;2023-02-28T05:35:40;5.80;99.90
21092;DHT22;10704;42.678;23.288;2023-02-28T05:38:06;5.80;99.90
21092;DHT22;10704;42.678;23.288;2023-02-28T05:40:32;5.80;99.90
21092;DHT22;10704;42.678;23.288;2023-02-28T05:42:58;5.90;99.90
21092;DHT22;10704;42.678;23.288;2023-02-28T05:45:24;6.00;99.90
21092;DHT22;10704;42.678;23.288;2023-02-28T05:47:53;5.90;99.90
21092;DHT22;10704;42.678;23.288;2023-02-28T05:50:19;5.80;99.90
21092;DHT22;10704;42.678;23.288;2023-02-28T05:52:50;5.90;99.90
21092;DHT22;10704;42.678;23.288;2023-02-28T05:55:16;6.10;99.90
21092;DHT22;10704;42.678;23.288;2023-02-28T05:57:41;6.20;99.90
21092;DHT22;10704;42.678;23.288;2023-02-28T06:00:09;6.40;99.90
21092;DHT22;10704;42.678;23.288;2023-02-28T06:02:39;6.40;99.90
21092;DHT22;10704;42.678;23.288;2023-02-28T06:05:07;6.30;99.90
21092;DHT22;10704;42.678;23.288;2023-02-28T06:07:34;6.20;99.90
21092;DHT22;10704;42.678;23.288;2023-02-28T06:09:59;6.30;99.90
21092;DHT22;10704;42.678;23.288;2023-02-28T06:12:25;6.30;99.90
21092;DHT22;10704;42.678;23.288;2023-02-28T06:14:51;6.30;99.90
21092;DHT22;10704;42.678;23.288;2023-02-28T06:17:17;6.40;99.90
21092;DHT22;10704;42.678;23.288;2023-02-28T06:19:43;6.30;99.90
21092;DHT22;10704;42.678;23.288;2023-02-28T06:22:09;6.40;99.90
21092;DHT22;10704;42.678;23.288;2023-02-28T06:24:35;6.40;99.90
21092;DHT22;10704;42.678;23.288;2023-02-28T06:27:01;6.50;99.90
21092;DHT22;10704;42.678;23.288;2023-02-28T06:29:34;6.60;99.90
21092;DHT22;10704;42.678;23.288;2023-02-28T06:32:00;6.80;99.90
21092;DHT22;10704;42.678;23.288;2023-02-28T06:34:26;6.70;99.90
21092;DHT22;10704;42.678;23.288;2023-02-28T06:36:52;6.70;99.90
21092;DHT22;10704;42.678;23.288;2023-02-28T06:39:18;6.70;99.90
21092;DHT22;10704;42.678;23.288;2023-02-28T06:41:44;6.80;99.90
21092;DHT22;10704;42.678;23.288;2023-02-28T06:44:14;6.80;99.90
21092;DHT22;10704;42.678;23.288;2023-02-28T06:46:42;6.80;99.90
21092;DHT22;10704;42.678;23.288;2023-02-28T06:49:08;6.80;99.90
21092;DHT22;10704;42.678;23.288;2023-02-28T06:51:36;6.90;99.90
21092;DHT22;10704;42.678;23.288;2023-02-28T06:54:02;7.00;99.90
21092;DHT22;10704;42.678;23.288;2023-02-28T06:56:28;7.20;99.90
21092;DHT22;10704;42.678;23.288;2023-02-28T06:58:54;7.10;99.90
21092;DHT22;10704;42.678;23.288;2023-02-28T07:01:20;7.00;99.90
21092;DHT22;10704;42.678;23.288;2023-02-28T07:03:48;7.00;99.90
21092;DHT22;10704;42.678;23.288;2023-02-28T07:06:18;7.00;99.90
21092;DHT22;10704;42.678;23.288;2023-02-28T07:08:44;6.90;99.90
21092;DHT22;10704;42.678;23.288;2023-02-28T07:11:10;6.90;99.90
21092;DHT22;10704;42.678;23.288;2023-02-28T07:13:36;7.00;99.90
21092;DHT22;10704;42.678;23.288;2023-02-28T07:16:07;6.90;99.90
21092;DHT22;10704;42.678;23.288;2023-02-28T07:18:35;6.80;99.90
21092;DHT22;10704;42.678;23.288;2023-02-28T07:21:03;6.90;99.90
21092;DHT22;10704;42.678;23.288;2023-02-28T07:23:29;6.90;99.90
21092;DHT22;10704;42.678;23.288;2023-02-28T07:25:55;6.90;99.90
21092;DHT22;10704;42.678;23.288;2023-02-28T07:28:21;6.90;99.90
21092;DHT22;10704;42.678;23.288;2023-02-28T07:30:47;6.90;99.90
21092;DHT22;10704;42.678;23.288;2023-02-28T07:33:13;7.00;99.90
21092;DHT22;10704;42.678;23.288;2023-02-28T07:35:40;7.10;99.90
21092;DHT22;10704;42.678;23.288;2023-02-28T07:38:05;7.10;99.90
21092;DHT22;10704;42.678;23.288;2023-02-28T07:40:35;7.20;99.90
21092;DHT22;10704;42.678;23.288;2023-02-28T07:43:02;7.10;99.90
21092;DHT22;10704;42.678;23.288;2023-02-28T07:45:28;7.20;99.90
21092;DHT22;10704;42.678;23.288;2023-02-28T07:47:55;7.20;99.90
21092;DHT22;10704;42.678;23.288;2023-02-28T07:50:21;7.30;99.90
21092;DHT22;10704;42.678;23.288;2023-02-28T07:52:47;7.50;99.90
21092;DHT22;10704;42.678;23.288;2023-02-28T07:55:13;7.50;99.90
21092;DHT22;10704;42.678;23.288;2023-02-28T07:57:40;7.60;99.90
21092;DHT22;10704;42.678;23.288;2023-02-28T08:00:09;7.70;99.90
21092;DHT22;10704;42.678;23.288;2023-02-28T08:02:39;7.80;99.90
21092;DHT22;10704;42.678;23.288;2023-02-28T08:05:06;7.80;99.90
21092;DHT22;10704;42.678;23.288;2023-02-28T08:07:32;7.90;99.90
21092;DHT22;10704;42.678;23.288;2023-02-28T08:09:59;8.00;99.90
21092;DHT22;10704;42.678;23.288;2023-02-28T08:12:25;8.00;99.90
21092;DHT22;10704;42.678;23.288;2023-02-28T08:14:51;8.10;99.90
21092;DHT22;10704;42.678;23.288;2023-02-28T08:17:29;8.00;99.90
21092;DHT22;10704;42.678;23.288;2023-02-28T08:19:55;8.00;99.90
21092;DHT22;10704;42.678;23.288;2023-02-28T08:22:21;8.00;99.90
21092;DHT22;10704;42.678;23.288;2023-02-28T08:24:47;8.00;99.90
21092;DHT22;10704;42.678;23.288;2023-02-28T08:27:13;8.00;99.90
21092;DHT22;10704;42.678;23.288;2023-02-28T08:29:39;8.10;99.90
21092;DHT22;10704;42.678;23.288;2023-02-28T08:32:06;8.20;99.90
21092;DHT22;10704;42.678;23.288;2023-02-28T08:34:32;8.10;99.90
21092;DHT22;10704;42.678;23.288;2023-02-28T08:36:58;8.00;99.90
21092;DHT22;10704;42.678;23.288;2023-02-28T08:39:24;7.90;99.90
21092;DHT22;10704;42.678;23.288;2023-02-28T08:41:50;8.10;99.90
21092;DHT22;10704;42.678;23.288;2023-02-28T08:44:16;8.00;99.90
21092;DHT22;10704;42.678;23.288;2023-02-28T08:46:42;8.10;99.90
21092;DHT22;10704;42.678;23.288;2023-02-28T08:49:10;8.00;99.90
21092;DHT22;10704;42.678;23.288;2023-02-28T08:51:36;7.90;99.90
21092;DHT22;10704;42.678;23.288;2023-02-28T08:54:03;7.80;99.90
21092;DHT22;10704;42.678;23.288;2023-02-28T08:56:29;7.80;99.90
21092;DHT22;10704;42.678;23.288;2023-02-28T08:58:56;7.60;99.90
21092;DHT22;10704;42.678;23.288;2023-02-28T09:01:27;7.50;99.90
21092;DHT22;10704;42.678;23.288;2023-02-28T09:03:54;7.70;99.90
21092;DHT22;10704;42.678;23.288;2023-02-28T09:06:23;7.70;99.90
21092;DHT22;10704;42.678;23.288;2023-02-28T09:08:50;7.60;99.90
21092;DHT22;10704;42.678;23.288;2023-02-28T09:11:17;7.70;99.90
21092;DHT22;10704;42.678;23.288;2023-02-28T09:13:44;7.90;99.90
21092;DHT22;10704;42.678;23.288;2023-02-28T09:16:13;7.90;99.90
21092;DHT22;10704;42.678;23.288;2023-02-28T09:18:39;7.90;99.90
21092;DHT22;10704;42.678;23.288;2023-02-28T09:21:14;7.80;99.90
21092;DHT22;10704;42.678;23.288;2023-02-28T09:23:42;7.70;99.90
21092;DHT22;10704;42.678;23.288;2023-02-28T09:26:11;7.70;99.90
21092;DHT22;10704;42.678;23.288;2023-02-28T09:28:38;7.90;99.90
21092;DHT22;10704;42.678;23.288;2023-02-28T09:31:04;7.90;99.90
21092;DHT22;10704;42.678;23.288;2023-02-28T09:33:30;8.10;99.90
21092;DHT22;10704;42.678;23.288;2023-02-28T09:36:01;8.20;99.90
21092;DHT22;10704;42.678;23.288;2023-02-28T09:38:28;8.50;99.90
21092;DHT22;10704;42.678;23.288;2023-02-28T09:40:58;8.50;99.90
21092;DHT22;10704;42.678;23.288;2023-02-28T09:43:35;8.50;99.90
21092;DHT22;10704;42.678;23.288;2023-02-28T09:46:12;8.60;99.90
21092;DHT22;10704;42.678;23.288;2023-02-28T09:48:44;8.60;99.90
21092;DHT22;10704;42.678;23.288;2023-02-28T09:53:49;8.80;99.90
21092;DHT22;10704;42.678;23.288;2023-02-28T09:56:21;8.90;99.90
21092;DHT22;10704;42.678;23.288;2023-02-28T09:59:13;8.90;99.90
21092;DHT22;10704;42.678;23.288;2023-02-28T10:04:51;9.10;99.90
21092;DHT22;10704;42.678;23.288;2023-02-28T10:13:18;9.50;99.90
21092;DHT22;10704;42.678;23.288;2023-02-28T10:22:58;10.20;99.90
21092;DHT22;10704;42.678;23.288;2023-02-28T10:25:18;10.20;99.90
21092;DHT22;10704;42.678;23.288;2023-02-28T10:31:32;10.60;99.90
21092;DHT22;10704;42.678;23.288;2023-02-28T10:33:58;10.70;99.90
21092;DHT22;10704;42.678;23.288;2023-02-28T10:40:33;11.00;99.90
21092;DHT22;10704;42.678;23.288;2023-02-28T10:45:51;11.30;99.90
21092;DHT22;10704;42.678;23.288;2023-02-28T11:09:56;12.90;99.90
21092;DHT22;10704;42.678;23.288;2023-02-28T11:15:25;14.40;99.90
21092;DHT22;10704;42.678;23.288;2023-02-28T11:24:44;13.40;99.90
21092;DHT22;10704;42.678;23.288;2023-02-28T11:29:56;13.80;99.90
21092;DHT22;10704;42.678;23.288;2023-02-28T11:32:30;14.10;99.90
21092;DHT22;10704;42.678;23.288;2023-02-28T11:39:09;14.10;99.90
21092;DHT22;10704;42.678;23.288;2023-02-28T11:41:39;14.80;99.90
21092;DHT22;10704;42.678;23.288;2023-02-28T11:47:19;15.00;99.90
21092;DHT22;10704;42.678;23.288;2023-02-28T11:52:36;15.50;99.90
21092;DHT22;10704;42.678;23.288;2023-02-28T12:07:34;16.70;99.90
21092;DHT22;10704;42.678;23.288;2023-02-28T12:10:25;16.70;99.90
21092;DHT22;10704;42.678;23.288;2023-02-28T12:16:35;16.40;99.90
21092;DHT22;10704;42.678;23.288;2023-02-28T12:28:29;14.80;99.90
21092;DHT22;10704;42.678;23.288;2023-02-28T12:37:28;15.20;99.90
21092;DHT22;10704;42.678;23.288;2023-02-28T12:40:01;15.40;99.90
21092;DHT22;10704;42.678;23.288;2023-02-28T12:42:42;15.30;99.90
21092;DHT22;10704;42.678;23.288;2023-02-28T12:53:18;13.70;99.90
21092;DHT22;10704;42.678;23.288;2023-02-28T12:56:07;13.30;99.90
21092;DHT22;10704;42.678;23.288;2023-02-28T13:05:29;13.60;99.90
21092;DHT22;10704;42.678;23.288;2023-02-28T13:18:28;13.40;99.90
21092;DHT22;10704;42.678;23.288;2023-02-28T13:20:55;13.40;99.90
21092;DHT22;10704;42.678;23.288;2023-02-28T13:26:12;13.00;99.90
21092;DHT22;10704;42.678;23.288;2023-02-28T13:31:18;13.20;99.90
21092;DHT22;10704;42.678;23.288;2023-02-28T13:34:14;13.20;99.90
21092;DHT22;10704;42.678;23.288;2023-02-28T13:39:56;13.20;99.90
21092;DHT22;10704;42.678;23.288;2023-02-28T13:45:33;12.80;99.90
21092;DHT22;10704;42.678;23.288;2023-02-28T13:48:23;12.60;99.90
21092;DHT22;10704;42.678;23.288;2023-02-28T13:50:50;12.60;99.90
21092;DHT22;10704;42.678;23.288;2023-02-28T14:00:28;12.90;99.90
21092;DHT22;10704;42.678;23.288;2023-02-28T14:05:39;12.70;99.90
21092;DHT22;10704;42.678;23.288;2023-02-28T14:08:16;12.40;99.90
21092;DHT22;10704;42.678;23.288;2023-02-28T14:10:46;11.90;99.90
21092;DHT22;10704;42.678;23.288;2023-02-28T14:16:09;11.70;99.90
21092;DHT22;10704;42.678;23.288;2023-02-28T14:18:37;11.70;99.90
21092;DHT22;10704;42.678;23.288;2023-02-28T14:21:26;11.60;99.90
21092;DHT22;10704;42.678;23.288;2023-02-28T14:26:33;11.60;99.90
21092;DHT22;10704;42.678;23.288;2023-02-28T14:32:29;11.60;99.90
21092;DHT22;10704;42.678;23.288;2023-02-28T14:37:38;11.50;99.90
21092;DHT22;10704;42.678;23.288;2023-02-28T14:40:16;11.60;99.90
21092;DHT22;10704;42.678;23.288;2023-02-28T14:42:48;11.70;99.90
21092;DHT22;10704;42.678;23.288;2023-02-28T14:49:20;11.60;99.90
21092;DHT22;10704;42.678;23.288;2023-02-28T14:52:00;11.40;99.90
21092;DHT22;10704;42.678;23.288;2023-02-28T14:54:27;11.40;99.90
21092;DHT22;10704;42.678;23.288;2023-02-28T14:56:54;11.40;99.90
21092;DHT22;10704;42.678;23.288;2023-02-28T15:01:51;11.10;99.90
21092;DHT22;10704;42.678;23.288;2023-02-28T15:04:26;11.10;99.90
21092;DHT22;10704;42.678;23.288;2023-02-28T15:07:14;10.90;99.90
21092;DHT22;10704;42.678;23.288;2023-02-28T15:13:39;10.90;99.90
21092;DHT22;10704;42.678;23.288;2023-02-28T15:16:10;10.70;99.90
21092;DHT22;10704;42.678;23.288;2023-02-28T15:30:24;10.60;99.90
21092;DHT22;10704;42.678;23.288;2023-02-28T15:35:39;10.50;99.90
21092;DHT22;10704;42.678;23.288;2023-02-28T15:42:10;10.20;99.90
21092;DHT22;10704;42.678;23.288;2023-02-28T15:44:36;10.10;99.90
21092;DHT22;10704;42.678;23.288;2023-02-28T16:04:35;9.70;99.90
21092;DHT22;10704;42.678;23.288;2023-02-28T16:07:06;9.70;99.90
21092;DHT22;10704;42.678;23.288;2023-02-28T16:09:37;9.60;99.90
21092;DHT22;10704;42.678;23.288;2023-02-28T16:12:03;9.60;99.90
21092;DHT22;10704;42.678;23.288;2023-02-28T16:14:31;9.50;99.90
21092;DHT22;10704;42.678;23.288;2023-02-28T16:17:03;9.50;99.90
21092;DHT22;10704;42.678;23.288;2023-02-28T16:19:30;9.40;99.90
21092;DHT22;10704;42.678;23.288;2023-02-28T16:25:44;9.10;99.90
21092;DHT22;10704;42.678;23.288;2023-02-28T16:31:29;8.80;99.90
21092;DHT22;10704;42.678;23.288;2023-02-28T16:33:55;8.70;99.90
21092;DHT22;10704;42.678;23.288;2023-02-28T16:36:23;8.70;99.90
21092;DHT22;10704;42.678;23.288;2023-02-28T16:38:52;8.70;99.90
21092;DHT22;10704;42.678;23.288;2023-02-28T16:41:21;8.60;99.90
21092;DHT22;10704;42.678;23.288;2023-02-28T16:44:13;8.50;99.90
21092;DHT22;10704;42.678;23.288;2023-02-28T16:46:39;8.40;99.90
21092;DHT22;10704;42.678;23.288;2023-02-28T16:49:11;8.30;99.90
21092;DHT22;10704;42.678;23.288;2023-02-28T16:55:26;8.30;99.90
21092;DHT22;10704;42.678;23.288;2023-02-28T16:57:57;8.20;99.90
21092;DHT22;10704;42.678;23.288;2023-02-28T17:00:24;8.20;99.90
21092;DHT22;10704;42.678;23.288;2023-02-28T17:02:50;8.10;99.90
21092;DHT22;10704;42.678;23.288;2023-02-28T17:05:16;8.10;99.90
21092;DHT22;10704;42.678;23.288;2023-02-28T17:07:45;8.00;99.90
21092;DHT22;10704;42.678;23.288;2023-02-28T17:12:39;8.00;99.90
21092;DHT22;10704;42.678;23.288;2023-02-28T17:15:06;7.90;99.90
21092;DHT22;10704;42.678;23.288;2023-02-28T17:17:32;7.80;99.90
21092;DHT22;10704;42.678;23.288;2023-02-28T17:19:58;7.80;99.90
21092;DHT22;10704;42.678;23.288;2023-02-28T17:22:24;7.70;99.90
21092;DHT22;10704;42.678;23.288;2023-02-28T17:25:19;7.70;99.90
21092;DHT22;10704;42.678;23.288;2023-02-28T17:31:32;7.80;99.90
21092;DHT22;10704;42.678;23.288;2023-02-28T17:41:41;7.40;99.90
21092;DHT22;10704;42.678;23.288;2023-02-28T17:44:08;7.60;99.90
21092;DHT22;10704;42.678;23.288;2023-02-28T17:46:34;7.50;99.90
21092;DHT22;10704;42.678;23.288;2023-02-28T17:49:00;7.40;99.90
21092;DHT22;10704;42.678;23.288;2023-02-28T17:51:26;7.40;99.90
21092;DHT22;10704;42.678;23.288;2023-02-28T17:53:52;7.40;99.90
21092;DHT22;10704;42.678;23.288;2023-02-28T17:56:21;7.30;99.90
21092;DHT22;10704;42.678;23.288;2023-02-28T17:58:49;7.30;99.90
21092;DHT22;10704;42.678;23.288;2023-02-28T18:01:50;7.20;99.90
21092;DHT22;10704;42.678;23.288;2023-02-28T18:04:16;7.10;99.90
21092;DHT22;10704;42.678;23.288;2023-02-28T18:06:45;7.10;99.90
21092;DHT22;10704;42.678;23.288;2023-02-28T18:09:18;7.10;99.90
21092;DHT22;10704;42.678;23.288;2023-02-28T18:12:09;7.10;99.90
21092;DHT22;10704;42.678;23.288;2023-02-28T18:14:35;7.10;99.90
21092;DHT22;10704;42.678;23.288;2023-02-28T18:17:00;7.10;99.90
21092;DHT22;10704;42.678;23.288;2023-02-28T18:19:26;7.10;99.90
21092;DHT22;10704;42.678;23.288;2023-02-28T18:21:53;7.10;99.90
21092;DHT22;10704;42.678;23.288;2023-02-28T18:24:21;7.00;99.90
21092;DHT22;10704;42.678;23.288;2023-02-28T18:26:47;7.10;99.90
21092;DHT22;10704;42.678;23.288;2023-02-28T18:29:22;7.10;99.90
21092;DHT22;10704;42.678;23.288;2023-02-28T18:31:49;7.10;99.90
21092;DHT22;10704;42.678;23.288;2023-02-28T18:34:15;7.10;99.90
21092;DHT22;10704;42.678;23.288;2023-02-28T18:36:41;7.00;99.90
21092;DHT22;10704;42.678;23.288;2023-02-28T18:39:26;7.10;99.90
21092;DHT22;10704;42.678;23.288;2023-02-28T18:41:52;7.10;99.90
21092;DHT22;10704;42.678;23.288;2023-02-28T18:44:18;7.10;99.90
21092;DHT22;10704;42.678;23.288;2023-02-28T18:46:44;7.10;99.90
21092;DHT22;10704;42.678;23.288;2023-02-28T18:49:10;7.10;99.90
21092;DHT22;10704;42.678;23.288;2023-02-28T18:51:36;7.10;99.90
21092;DHT22;10704;42.678;23.288;2023-02-28T18:54:02;7.10;99.90
21092;DHT22;10704;42.678;23.288;2023-02-28T18:56:28;7.10;99.90
21092;DHT22;10704;42.678;23.288;2023-02-28T18:58:54;7.20;99.90
21092;DHT22;10704;42.678;23.288;2023-02-28T19:01:25;7.20;99.90
21092;DHT22;10704;42.678;23.288;2023-02-28T19:03:59;7.20;99.90
21092;DHT22;10704;42.678;23.288;2023-02-28T19:06:26;7.20;99.90
21092;DHT22;10704;42.678;23.288;2023-02-28T19:08:55;7.20;99.90
21092;DHT22;10704;42.678;23.288;2023-02-28T19:11:21;7.10;99.90
21092;DHT22;10704;42.678;23.288;2023-02-28T19:13:47;7.00;99.90
21092;DHT22;10704;42.678;23.288;2023-02-28T19:16:15;7.00;99.90
21092;DHT22;10704;42.678;23.288;2023-02-28T19:18:42;7.10;99.90
21092;DHT22;10704;42.678;23.288;2023-02-28T19:21:09;7.00;99.90
21092;DHT22;10704;42.678;23.288;2023-02-28T19:23:36;7.00;99.90
21092;DHT22;10704;42.678;23.288;2023-02-28T19:26:11;7.10;99.90
21092;DHT22;10704;42.678;23.288;2023-02-28T19:28:37;7.10;99.90
21092;DHT22;10704;42.678;23.288;2023-02-28T19:31:04;7.10;99.90
21092;DHT22;10704;42.678;23.288;2023-02-28T19:33:30;7.20;99.90
21092;DHT22;10704;42.678;23.288;2023-02-28T19:36:00;7.10;99.90
21092;DHT22;10704;42.678;23.288;2023-02-28T19:38:26;7.10;99.90
21092;DHT22;10704;42.678;23.288;2023-02-28T19:41:03;7.10;99.90
21092;DHT22;10704;42.678;23.288;2023-02-28T19:43:30;7.20;99.90
21092;DHT22;10704;42.678;23.288;2023-02-28T19:45:56;7.10;99.90
21092;DHT22;10704;42.678;23.288;2023-02-28T19:48:22;7.20;99.90
21092;DHT22;10704;42.678;23.288;2023-02-28T19:51:00;7.20;99.90
21092;DHT22;10704;42.678;23.288;2023-02-28T19:53:28;7.20;99.90
21092;DHT22;10704;42.678;23.288;2023-02-28T19:55:54;7.10;99.90
21092;DHT22;10704;42.678;23.288;2023-02-28T19:58:22;7.20;99.90
21092;DHT22;10704;42.678;23.288;2023-02-28T20:00:48;7.20;99.90
21092;DHT22;10704;42.678;23.288;2023-02-28T20:03:15;7.10;99.90
21092;DHT22;10704;42.678;23.288;2023-02-28T20:05:43;7.10;99.90
21092;DHT22;10704;42.678;23.288;2023-02-28T20:08:10;7.10;99.90
21092;DHT22;10704;42.678;23.288;2023-02-28T20:10:36;7.10;99.90
21092;DHT22;10704;42.678;23.288;2023-02-28T20:13:02;7.00;99.90
21092;DHT22;10704;42.678;23.288;2023-02-28T20:15:29;7.00;99.90
21092;DHT22;10704;42.678;23.288;2023-02-28T20:17:55;7.00;99.90